Beddau, United Kingdom
Current Conditions -  °F | °C
As of 6:50 AM on Sunday 21 Dec 2014 (Local Time) from EGFF Reporting Station
Overcast Overcast  
Wind Chill:   Ceiling: 400
Heat Index:   Visibility: 6mi
Dew Point:   Wind: 18mph
Humidity: 93%   Direction: 260°W
Pressure: 30.36"   Gusts: NA
Location:  51.55°N, 3.36°W
Report Text: EGFF 210650Z AUTO 26016KT 9999 BKN004 BKN019 OVC028 08/07 Q1028 REDZ
Loading
Personal Weather Stations






























Interactive Weather Map New forecast layout! Learn more

10-Day Weather Forecast

Advertisements
Track Severe Weather on mobile